sensor_id;sensor_type;location;lat;lon;timestamp;pressure;altitude;pressure_sealevel;temperature;humidity
76337;BME280;65157;50.082;18.178;2023-03-04T00:02:24;99481.70;;;-0.11;80.30
76337;BME280;65157;50.082;18.178;2023-03-04T00:04:50;99484.46;;;-0.14;80.51
76337;BME280;65157;50.082;18.178;2023-03-04T00:07:16;99486.18;;;-0.16;80.59
76337;BME280;65157;50.082;18.178;2023-03-04T00:09:43;99482.02;;;-0.16;80.28
76337;BME280;65157;50.082;18.178;2023-03-04T00:12:10;99482.73;;;-0.15;80.54
76337;BME280;65157;50.082;18.178;2023-03-04T00:14:37;99478.02;;;-0.16;80.63
76337;BME280;65157;50.082;18.178;2023-03-04T00:17:03;99475.76;;;-0.20;80.99
76337;BME280;65157;50.082;18.178;2023-03-04T00:19:30;99469.84;;;-0.24;80.82
76337;BME280;65157;50.082;18.178;2023-03-04T00:21:56;99472.27;;;-0.23;80.71
76337;BME280;65157;50.082;18.178;2023-03-04T00:24:23;99470.88;;;-0.25;80.90
76337;BME280;65157;50.082;18.178;2023-03-04T00:26:49;99469.66;;;-0.26;80.82
76337;BME280;65157;50.082;18.178;2023-03-04T00:29:15;99471.21;;;-0.29;81.05
76337;BME280;65157;50.082;18.178;2023-03-04T00:31:47;99466.86;;;-0.32;80.97
76337;BME280;65157;50.082;18.178;2023-03-04T00:34:13;99464.08;;;-0.31;80.89
76337;BME280;65157;50.082;18.178;2023-03-04T00:36:39;99460.11;;;-0.30;80.80
76337;BME280;65157;50.082;18.178;2023-03-04T00:39:08;99454.73;;;-0.28;80.55
76337;BME280;65157;50.082;18.178;2023-03-04T00:41:34;99450.05;;;-0.31;80.87
76337;BME280;65157;50.082;18.178;2023-03-04T00:44:00;99448.30;;;-0.35;80.61
76337;BME280;65157;50.082;18.178;2023-03-04T00:46:26;99444.98;;;-0.39;80.71
76337;BME280;65157;50.082;18.178;2023-03-04T00:48:52;99440.96;;;-0.44;80.47
76337;BME280;65157;50.082;18.178;2023-03-04T00:51:18;99439.40;;;-0.45;80.54
76337;BME280;65157;50.082;18.178;2023-03-04T00:53:44;99434.37;;;-0.46;80.30
76337;BME280;65157;50.082;18.178;2023-03-04T00:56:10;99430.53;;;-0.50;80.27
76337;BME280;65157;50.082;18.178;2023-03-04T00:58:36;99427.22;;;-0.55;80.33
76337;BME280;65157;50.082;18.178;2023-03-04T01:01:03;99422.33;;;-0.60;80.31
76337;BME280;65157;50.082;18.178;2023-03-04T01:03:29;99415.04;;;-0.63;80.48
76337;BME280;65157;50.082;18.178;2023-03-04T01:05:55;99408.62;;;-0.66;80.45
76337;BME280;65157;50.082;18.178;2023-03-04T01:08:21;99409.11;;;-0.70;80.28
76337;BME280;65157;50.082;18.178;2023-03-04T01:10:47;99403.20;;;-0.73;80.35
76337;BME280;65157;50.082;18.178;2023-03-04T01:13:13;99400.40;;;-0.79;80.55
76337;BME280;65157;50.082;18.178;2023-03-04T01:15:39;99398.48;;;-0.81;80.39
76337;BME280;65157;50.082;18.178;2023-03-04T01:18:06;99390.31;;;-0.85;80.33
76337;BME280;65157;50.082;18.178;2023-03-04T01:20:32;99387.90;;;-0.83;80.21
76337;BME280;65157;50.082;18.178;2023-03-04T01:22:58;99383.91;;;-0.83;80.29
76337;BME280;65157;50.082;18.178;2023-03-04T01:25:25;99376.45;;;-0.87;80.38
76337;BME280;65157;50.082;18.178;2023-03-04T01:27:51;99366.52;;;-0.96;80.31
76337;BME280;65157;50.082;18.178;2023-03-04T01:30:17;99365.67;;;-0.94;80.14
76337;BME280;65157;50.082;18.178;2023-03-04T01:32:43;99368.80;;;-0.91;80.02
76337;BME280;65157;50.082;18.178;2023-03-04T01:35:09;99364.46;;;-0.91;80.08
76337;BME280;65157;50.082;18.178;2023-03-04T01:37:35;99362.56;;;-0.92;79.94
76337;BME280;65157;50.082;18.178;2023-03-04T01:40:01;99356.49;;;-0.92;79.93
76337;BME280;65157;50.082;18.178;2023-03-04T01:42:30;99351.12;;;-0.92;79.86
76337;BME280;65157;50.082;18.178;2023-03-04T01:44:56;99347.30;;;-0.94;79.82
76337;BME280;65157;50.082;18.178;2023-03-04T01:47:29;99346.08;;;-0.96;79.92
76337;BME280;65157;50.082;18.178;2023-03-04T01:50:01;99332.35;;;-1.05;79.98
76337;BME280;65157;50.082;18.178;2023-03-04T01:52:29;99332.54;;;-1.03;79.96
76337;BME280;65157;50.082;18.178;2023-03-04T01:54:58;99321.09;;;-1.06;79.86
76337;BME280;65157;50.082;18.178;2023-03-04T01:57:25;99313.27;;;-1.08;79.79
76337;BME280;65157;50.082;18.178;2023-03-04T02:00:14;99314.86;;;-1.06;79.82
76337;BME280;65157;50.082;18.178;2023-03-04T02:02:42;99311.02;;;-1.10;80.15
76337;BME280;65157;50.082;18.178;2023-03-04T02:05:09;99304.77;;;-1.13;80.10
76337;BME280;65157;50.082;18.178;2023-03-04T02:07:35;99298.69;;;-1.14;80.20
76337;BME280;65157;50.082;18.178;2023-03-04T02:10:02;99298.51;;;-1.19;80.01
76337;BME280;65157;50.082;18.178;2023-03-04T02:12:29;99292.42;;;-1.21;80.15
76337;BME280;65157;50.082;18.178;2023-03-04T02:14:56;99291.04;;;-1.24;80.13
76337;BME280;65157;50.082;18.178;2023-03-04T02:17:26;99288.10;;;-1.23;80.29
76337;BME280;65157;50.082;18.178;2023-03-04T02:19:54;99280.96;;;-1.29;79.91
76337;BME280;65157;50.082;18.178;2023-03-04T02:22:22;99283.75;;;-1.25;79.99
76337;BME280;65157;50.082;18.178;2023-03-04T02:24:56;99277.35;;;-1.24;80.09
76337;BME280;65157;50.082;18.178;2023-03-04T02:27:23;99274.42;;;-1.23;79.97
76337;BME280;65157;50.082;18.178;2023-03-04T02:29:50;99272.69;;;-1.23;79.76
76337;BME280;65157;50.082;18.178;2023-03-04T02:32:16;99267.50;;;-1.23;80.01
76337;BME280;65157;50.082;18.178;2023-03-04T02:34:48;99261.25;;;-1.25;79.69
76337;BME280;65157;50.082;18.178;2023-03-04T02:37:16;99252.02;;;-1.33;79.76
76337;BME280;65157;50.082;18.178;2023-03-04T02:39:45;99249.78;;;-1.32;79.90
76337;BME280;65157;50.082;18.178;2023-03-04T02:42:16;99253.92;;;-1.35;79.53
76337;BME280;65157;50.082;18.178;2023-03-04T02:44:43;99259.27;;;-1.38;79.36
76337;BME280;65157;50.082;18.178;2023-03-04T02:47:12;99251.80;;;-1.42;79.28
76337;BME280;65157;50.082;18.178;2023-03-04T02:49:40;99249.73;;;-1.43;79.33
76337;BME280;65157;50.082;18.178;2023-03-04T02:52:18;99246.43;;;-1.43;79.19
76337;BME280;65157;50.082;18.178;2023-03-04T02:54:45;99236.70;;;-1.51;78.71
76337;BME280;65157;50.082;18.178;2023-03-04T02:57:12;99240.15;;;-1.52;78.92
76337;BME280;65157;50.082;18.178;2023-03-04T02:59:40;99236.14;;;-1.56;78.79
76337;BME280;65157;50.082;18.178;2023-03-04T03:02:07;99234.22;;;-1.60;78.86
76337;BME280;65157;50.082;18.178;2023-03-04T03:04:40;99232.46;;;-1.65;78.89
76337;BME280;65157;50.082;18.178;2023-03-04T03:07:07;99229.67;;;-1.67;78.80
76337;BME280;65157;50.082;18.178;2023-03-04T03:09:33;99229.31;;;-1.71;78.99
76337;BME280;65157;50.082;18.178;2023-03-04T03:12:01;99226.02;;;-1.74;78.98
76337;BME280;65157;50.082;18.178;2023-03-04T03:14:29;99219.23;;;-1.77;78.96
76337;BME280;65157;50.082;18.178;2023-03-04T03:16:55;99216.64;;;-1.80;79.06
76337;BME280;65157;50.082;18.178;2023-03-04T03:19:22;99214.70;;;-1.83;78.86
76337;BME280;65157;50.082;18.178;2023-03-04T03:21:48;99211.92;;;-1.85;78.88
76337;BME280;65157;50.082;18.178;2023-03-04T03:24:15;99210.17;;;-1.88;78.93
76337;BME280;65157;50.082;18.178;2023-03-04T03:26:43;99206.34;;;-1.93;78.76
76337;BME280;65157;50.082;18.178;2023-03-04T03:29:09;99210.48;;;-1.91;79.06
76337;BME280;65157;50.082;18.178;2023-03-04T03:31:35;99209.96;;;-1.94;78.87
76337;BME280;65157;50.082;18.178;2023-03-04T03:34:01;99215.65;;;-1.96;78.79
76337;BME280;65157;50.082;18.178;2023-03-04T03:36:27;99226.52;;;-1.98;78.45
76337;BME280;65157;50.082;18.178;2023-03-04T03:38:53;99226.17;;;-2.01;78.69
76337;BME280;65157;50.082;18.178;2023-03-04T03:41:19;99233.60;;;-2.01;78.57
76337;BME280;65157;50.082;18.178;2023-03-04T03:43:45;99237.39;;;-2.02;78.37
76337;BME280;65157;50.082;18.178;2023-03-04T03:46:11;99235.67;;;-2.03;78.46
76337;BME280;65157;50.082;18.178;2023-03-04T03:48:37;99231.15;;;-2.05;78.64
76337;BME280;65157;50.082;18.178;2023-03-04T03:51:03;99227.34;;;-2.06;78.75
76337;BME280;65157;50.082;18.178;2023-03-04T03:53:30;99228.89;;;-2.06;78.45
76337;BME280;65157;50.082;18.178;2023-03-04T03:55:56;99230.08;;;-2.08;78.54
76337;BME280;65157;50.082;18.178;2023-03-04T03:58:22;99230.23;;;-2.10;78.39
76337;BME280;65157;50.082;18.178;2023-03-04T04:00:47;99235.41;;;-2.11;78.48
76337;BME280;65157;50.082;18.178;2023-03-04T04:03:14;99231.95;;;-2.13;78.50
76337;BME280;65157;50.082;18.178;2023-03-04T04:05:41;99227.95;;;-2.16;78.52
76337;BME280;65157;50.082;18.178;2023-03-04T04:08:11;99227.92;;;-2.17;78.71
76337;BME280;65157;50.082;18.178;2023-03-04T04:10:40;99231.21;;;-2.19;78.60
76337;BME280;65157;50.082;18.178;2023-03-04T04:13:07;99228.95;;;-2.21;78.56
76337;BME280;65157;50.082;18.178;2023-03-04T04:15:34;99233.09;;;-2.21;78.51
76337;BME280;65157;50.082;18.178;2023-03-04T04:18:00;99235.69;;;-2.21;78.74
76337;BME280;65157;50.082;18.178;2023-03-04T04:20:26;99236.55;;;-2.21;78.74
76337;BME280;65157;50.082;18.178;2023-03-04T04:22:55;99239.14;;;-2.21;78.55
76337;BME280;65157;50.082;18.178;2023-03-04T04:25:21;99241.91;;;-2.22;78.87
76337;BME280;65157;50.082;18.178;2023-03-04T04:27:47;99243.11;;;-2.24;78.78
76337;BME280;65157;50.082;18.178;2023-03-04T04:30:13;99250.37;;;-2.24;79.05
76337;BME280;65157;50.082;18.178;2023-03-04T04:32:39;99255.38;;;-2.24;79.25
76337;BME280;65157;50.082;18.178;2023-03-04T04:35:06;99260.73;;;-2.22;79.70
76337;BME280;65157;50.082;18.178;2023-03-04T04:37:32;99257.30;;;-2.20;79.73
76337;BME280;65157;50.082;18.178;2023-03-04T04:39:58;99255.92;;;-2.20;80.34
76337;BME280;65157;50.082;18.178;2023-03-04T04:42:24;99254.38;;;-2.19;80.30
76337;BME280;65157;50.082;18.178;2023-03-04T04:44:51;99254.73;;;-2.17;79.96
76337;BME280;65157;50.082;18.178;2023-03-04T04:47:23;99255.11;;;-2.14;80.02
76337;BME280;65157;50.082;18.178;2023-03-04T04:49:49;99258.41;;;-2.12;80.22
76337;BME280;65157;50.082;18.178;2023-03-04T04:52:15;99261.71;;;-2.09;80.40
76337;BME280;65157;50.082;18.178;2023-03-04T04:54:41;99257.09;;;-2.05;80.26
76337;BME280;65157;50.082;18.178;2023-03-04T04:57:08;99255.56;;;-2.01;80.53
76337;BME280;65157;50.082;18.178;2023-03-04T04:59:34;99254.89;;;-1.98;80.61
76337;BME280;65157;50.082;18.178;2023-03-04T05:02:00;99249.20;;;-1.96;80.91
76337;BME280;65157;50.082;18.178;2023-03-04T05:04:35;99245.41;;;-1.95;80.87
76337;BME280;65157;50.082;18.178;2023-03-04T05:07:01;99248.37;;;-1.92;80.93
76337;BME280;65157;50.082;18.178;2023-03-04T05:09:27;99250.30;;;-1.89;81.09
76337;BME280;65157;50.082;18.178;2023-03-04T05:11:53;99250.98;;;-1.90;81.43
76337;BME280;65157;50.082;18.178;2023-03-04T05:14:19;99252.35;;;-1.93;81.49
76337;BME280;65157;50.082;18.178;2023-03-04T05:16:45;99250.62;;;-1.92;81.57
76337;BME280;65157;50.082;18.178;2023-03-04T05:19:11;99248.56;;;-1.90;81.42
76337;BME280;65157;50.082;18.178;2023-03-04T05:21:37;99246.15;;;-1.87;81.39
76337;BME280;65157;50.082;18.178;2023-03-04T05:24:04;99245.14;;;-1.84;81.64
76337;BME280;65157;50.082;18.178;2023-03-04T05:26:30;99250.17;;;-1.82;81.61
76337;BME280;65157;50.082;18.178;2023-03-04T05:28:56;99248.78;;;-1.82;81.75
76337;BME280;65157;50.082;18.178;2023-03-04T05:31:22;99249.64;;;-1.82;81.97
76337;BME280;65157;50.082;18.178;2023-03-04T05:33:48;99238.95;;;-1.79;81.91
76337;BME280;65157;50.082;18.178;2023-03-04T05:36:15;99239.66;;;-1.77;81.99
76337;BME280;65157;50.082;18.178;2023-03-04T05:38:41;99240.52;;;-1.76;81.89
76337;BME280;65157;50.082;18.178;2023-03-04T05:41:07;99237.44;;;-1.72;81.72
76337;BME280;65157;50.082;18.178;2023-03-04T05:43:36;99241.80;;;-1.67;81.90
76337;BME280;65157;50.082;18.178;2023-03-04T05:46:04;99238.17;;;-1.65;81.75
76337;BME280;65157;50.082;18.178;2023-03-04T05:48:30;99239.23;;;-1.63;81.87
76337;BME280;65157;50.082;18.178;2023-03-04T05:50:59;99239.92;;;-1.62;81.91
76337;BME280;65157;50.082;18.178;2023-03-04T05:53:27;99241.86;;;-1.56;81.77
76337;BME280;65157;50.082;18.178;2023-03-04T05:55:58;99239.98;;;-1.53;81.87
76337;BME280;65157;50.082;18.178;2023-03-04T05:58:24;99239.83;;;-1.50;81.81
76337;BME280;65157;50.082;18.178;2023-03-04T06:00:50;99240.71;;;-1.46;82.00
76337;BME280;65157;50.082;18.178;2023-03-04T06:03:19;99240.37;;;-1.45;82.08
76337;BME280;65157;50.082;18.178;2023-03-04T06:05:50;99245.73;;;-1.45;82.33
76337;BME280;65157;50.082;18.178;2023-03-04T06:08:18;99240.88;;;-1.47;82.30
76337;BME280;65157;50.082;18.178;2023-03-04T06:10:44;99246.77;;;-1.44;82.27
76337;BME280;65157;50.082;18.178;2023-03-04T06:13:10;99237.40;;;-1.49;82.59
76337;BME280;65157;50.082;18.178;2023-03-04T06:15:37;99252.50;;;-1.43;82.63
76337;BME280;65157;50.082;18.178;2023-03-04T06:18:03;99251.78;;;-1.44;82.61
76337;BME280;65157;50.082;18.178;2023-03-04T06:20:29;99250.59;;;-1.44;82.84
76337;BME280;65157;50.082;18.178;2023-03-04T06:22:56;99249.55;;;-1.44;82.81
76337;BME280;65157;50.082;18.178;2023-03-04T06:25:26;99250.08;;;-1.40;82.67
76337;BME280;65157;50.082;18.178;2023-03-04T06:27:52;99251.64;;;-1.40;83.38
76337;BME280;65157;50.082;18.178;2023-03-04T06:30:18;99249.55;;;-1.42;83.25
76337;BME280;65157;50.082;18.178;2023-03-04T06:32:45;99250.77;;;-1.41;83.40
76337;BME280;65157;50.082;18.178;2023-03-04T06:35:11;99253.90;;;-1.39;83.06
76337;BME280;65157;50.082;18.178;2023-03-04T06:37:37;99254.10;;;-1.35;83.36
76337;BME280;65157;50.082;18.178;2023-03-04T06:40:04;99251.34;;;-1.32;83.05
76337;BME280;65157;50.082;18.178;2023-03-04T06:42:31;99251.01;;;-1.31;83.36
76337;BME280;65157;50.082;18.178;2023-03-04T06:45:03;99251.70;;;-1.30;83.51
76337;BME280;65157;50.082;18.178;2023-03-04T06:47:29;99250.83;;;-1.29;83.46
76337;BME280;65157;50.082;18.178;2023-03-04T06:49:55;99253.77;;;-1.28;83.61
76337;BME280;65157;50.082;18.178;2023-03-04T06:52:21;99255.85;;;-1.28;83.77
76337;BME280;65157;50.082;18.178;2023-03-04T06:54:48;99258.10;;;-1.29;83.95
76337;BME280;65157;50.082;18.178;2023-03-04T06:57:13;99258.63;;;-1.31;83.88
76337;BME280;65157;50.082;18.178;2023-03-04T06:59:40;99257.93;;;-1.30;83.56
76337;BME280;65157;50.082;18.178;2023-03-04T07:02:07;99258.45;;;-1.28;83.80
76337;BME280;65157;50.082;18.178;2023-03-04T07:04:35;99254.66;;;-1.26;83.77
76337;BME280;65157;50.082;18.178;2023-03-04T07:07:01;99252.25;;;-1.22;83.61
76337;BME280;65157;50.082;18.178;2023-03-04T07:09:27;99250.19;;;-1.21;83.83
76337;BME280;65157;50.082;18.178;2023-03-04T07:11:53;99248.30;;;-1.17;83.67
76337;BME280;65157;50.082;18.178;2023-03-04T07:14:19;99254.54;;;-1.15;84.16
76337;BME280;65157;50.082;18.178;2023-03-04T07:16:48;99252.63;;;-1.16;84.17
76337;BME280;65157;50.082;18.178;2023-03-04T07:19:15;99261.48;;;-1.14;84.22
76337;BME280;65157;50.082;18.178;2023-03-04T07:21:41;99261.64;;;-1.12;84.16
76337;BME280;65157;50.082;18.178;2023-03-04T07:24:08;99261.14;;;-1.10;83.93
76337;BME280;65157;50.082;18.178;2023-03-04T07:26:34;99264.96;;;-1.05;84.02
76337;BME280;65157;50.082;18.178;2023-03-04T07:29:00;99269.13;;;-1.04;84.06
76337;BME280;65157;50.082;18.178;2023-03-04T07:31:28;99268.63;;;-1.01;83.96
76337;BME280;65157;50.082;18.178;2023-03-04T07:34:21;99264.46;;;-1.02;83.90
76337;BME280;65157;50.082;18.178;2023-03-04T07:36:47;99272.13;;;-0.96;83.81
76337;BME280;65157;50.082;18.178;2023-03-04T07:39:16;99276.27;;;-0.94;83.99
76337;BME280;65157;50.082;18.178;2023-03-04T07:41:43;99280.45;;;-0.93;83.78
76337;BME280;65157;50.082;18.178;2023-03-04T07:44:15;99278.70;;;-0.93;83.72
76337;BME280;65157;50.082;18.178;2023-03-04T07:46:42;99281.15;;;-0.92;83.19
76337;BME280;65157;50.082;18.178;2023-03-04T07:49:10;99280.46;;;-0.89;83.34
76337;BME280;65157;50.082;18.178;2023-03-04T07:51:38;99288.26;;;-0.84;83.19
76337;BME280;65157;50.082;18.178;2023-03-04T07:54:10;99291.59;;;-0.78;83.04
76337;BME280;65157;50.082;18.178;2023-03-04T07:56:37;99294.55;;;-0.76;82.94
76337;BME280;65157;50.082;18.178;2023-03-04T07:59:03;99277.70;;;-0.87;82.79
76337;BME280;65157;50.082;18.178;2023-03-04T08:01:34;99299.91;;;-0.77;83.26
76337;BME280;65157;50.082;18.178;2023-03-04T08:04:03;99300.25;;;-0.78;83.38
76337;BME280;65157;50.082;18.178;2023-03-04T08:06:31;99301.81;;;-0.77;83.55
76337;BME280;65157;50.082;18.178;2023-03-04T08:09:01;99302.52;;;-0.75;83.64
76337;BME280;65157;50.082;18.178;2023-03-04T08:11:29;99304.78;;;-0.73;83.45
76337;BME280;65157;50.082;18.178;2023-03-04T08:13:56;99310.15;;;-0.70;83.29
76337;BME280;65157;50.082;18.178;2023-03-04T08:16:23;99315.70;;;-0.67;83.19
76337;BME280;65157;50.082;18.178;2023-03-04T08:18:52;99315.89;;;-0.66;83.30
76337;BME280;65157;50.082;18.178;2023-03-04T08:21:19;99314.88;;;-0.62;83.44
76337;BME280;65157;50.082;18.178;2023-03-04T08:23:46;99313.66;;;-0.58;83.38
76337;BME280;65157;50.082;18.178;2023-03-04T08:26:25;99308.64;;;-0.55;83.24
76337;BME280;65157;50.082;18.178;2023-03-04T08:28:54;99313.52;;;-0.53;82.93
76337;BME280;65157;50.082;18.178;2023-03-04T08:31:21;99313.88;;;-0.46;82.96
76337;BME280;65157;50.082;18.178;2023-03-04T08:33:47;99315.45;;;-0.41;82.56
76337;BME280;65157;50.082;18.178;2023-03-04T08:36:14;99318.92;;;-0.36;82.77
76337;BME280;65157;50.082;18.178;2023-03-04T08:38:41;99318.94;;;-0.32;82.64
76337;BME280;65157;50.082;18.178;2023-03-04T08:41:07;99318.78;;;-0.28;82.43
76337;BME280;65157;50.082;18.178;2023-03-04T08:43:33;99313.05;;;-0.27;82.28
76337;BME280;65157;50.082;18.178;2023-03-04T08:45:59;99322.95;;;-0.19;82.14
76337;BME280;65157;50.082;18.178;2023-03-04T08:48:26;99325.73;;;-0.19;82.00
76337;BME280;65157;50.082;18.178;2023-03-04T08:50:55;99314.80;;;-0.23;81.88
76337;BME280;65157;50.082;18.178;2023-03-04T08:53:21;99323.66;;;-0.16;81.70
76337;BME280;65157;50.082;18.178;2023-03-04T08:55:53;99316.73;;;-0.16;81.72
76337;BME280;65157;50.082;18.178;2023-03-04T08:58:19;99309.42;;;-0.14;81.63
76337;BME280;65157;50.082;18.178;2023-03-04T09:00:47;99308.05;;;-0.11;81.87
76337;BME280;65157;50.082;18.178;2023-03-04T09:03:14;99303.20;;;-0.07;81.45
76337;BME280;65157;50.082;18.178;2023-03-04T09:05:43;99304.93;;;-0.07;80.91
76337;BME280;65157;50.082;18.178;2023-03-04T09:08:10;99304.76;;;-0.10;80.93
76337;BME280;65157;50.082;18.178;2023-03-04T09:10:36;99306.48;;;-0.08;81.11
76337;BME280;65157;50.082;18.178;2023-03-04T09:13:03;99298.88;;;-0.04;80.72
76337;BME280;65157;50.082;18.178;2023-03-04T09:15:29;99301.13;;;-0.00;80.74
76337;BME280;65157;50.082;18.178;2023-03-04T09:17:55;99294.71;;;0.04;80.89
76337;BME280;65157;50.082;18.178;2023-03-04T09:20:22;99287.59;;;0.03;80.12
76337;BME280;65157;50.082;18.178;2023-03-04T09:22:48;99288.11;;;0.08;80.59
76337;BME280;65157;50.082;18.178;2023-03-04T09:25:14;99291.41;;;0.14;80.79
76337;BME280;65157;50.082;18.178;2023-03-04T09:27:40;99295.23;;;0.20;80.39
76337;BME280;65157;50.082;18.178;2023-03-04T09:30:08;99290.02;;;0.25;80.31
76337;BME280;65157;50.082;18.178;2023-03-04T09:32:34;99289.34;;;0.29;79.90
76337;BME280;65157;50.082;18.178;2023-03-04T09:35:01;99289.15;;;0.35;80.03
76337;BME280;65157;50.082;18.178;2023-03-04T09:37:27;99284.29;;;0.39;79.35
76337;BME280;65157;50.082;18.178;2023-03-04T09:39:54;99277.52;;;0.40;79.10
76337;BME280;65157;50.082;18.178;2023-03-04T09:42:35;99268.48;;;0.42;79.07
76337;BME280;65157;50.082;18.178;2023-03-04T09:45:05;99273.86;;;0.48;79.01
76337;BME280;65157;50.082;18.178;2023-03-04T09:47:36;99279.58;;;0.53;78.47
76337;BME280;65157;50.082;18.178;2023-03-04T09:50:07;99282.70;;;0.53;78.30
76337;BME280;65157;50.082;18.178;2023-03-04T09:55:48;99272.80;;;0.57;77.81
76337;BME280;65157;50.082;18.178;2023-03-04T10:01:22;99253.48;;;0.74;77.63
76337;BME280;65157;50.082;18.178;2023-03-04T10:03:53;99251.13;;;0.99;77.66
76337;BME280;65157;50.082;18.178;2023-03-04T10:06:21;99249.34;;;1.12;77.36
76337;BME280;65157;50.082;18.178;2023-03-04T10:09:10;99248.41;;;1.23;76.46
76337;BME280;65157;50.082;18.178;2023-03-04T10:11:50;99243.35;;;1.30;76.12
76337;BME280;65157;50.082;18.178;2023-03-04T10:16:54;99242.45;;;1.34;75.71
76337;BME280;65157;50.082;18.178;2023-03-04T10:24:57;99221.50;;;1.48;75.37
76337;BME280;65157;50.082;18.178;2023-03-04T10:27:24;99221.98;;;1.52;74.14
76337;BME280;65157;50.082;18.178;2023-03-04T10:29:51;99216.73;;;1.57;75.03
76337;BME280;65157;50.082;18.178;2023-03-04T10:32:18;99211.98;;;1.67;73.95
76337;BME280;65157;50.082;18.178;2023-03-04T10:34:45;99216.98;;;1.73;73.90
76337;BME280;65157;50.082;18.178;2023-03-04T10:37:11;99215.55;;;1.77;73.57
76337;BME280;65157;50.082;18.178;2023-03-04T10:39:40;99212.55;;;1.84;73.65
76337;BME280;65157;50.082;18.178;2023-03-04T10:44:50;99196.82;;;1.92;73.28
76337;BME280;65157;50.082;18.178;2023-03-04T10:47:16;99194.17;;;1.97;73.39
76337;BME280;65157;50.082;18.178;2023-03-04T10:49:54;99194.13;;;1.99;72.61
76337;BME280;65157;50.082;18.178;2023-03-04T10:54:59;99188.73;;;2.01;72.41
76337;BME280;65157;50.082;18.178;2023-03-04T10:57:40;99185.41;;;2.03;72.40
76337;BME280;65157;50.082;18.178;2023-03-04T11:02:44;99177.56;;;2.04;71.68
76337;BME280;65157;50.082;18.178;2023-03-04T11:05:23;99180.52;;;2.05;71.94
76337;BME280;65157;50.082;18.178;2023-03-04T11:08:00;99181.70;;;2.07;72.25
76337;BME280;65157;50.082;18.178;2023-03-04T11:15:56;99170.91;;;2.08;71.60
76337;BME280;65157;50.082;18.178;2023-03-04T11:21:01;99171.58;;;2.11;71.75
76337;BME280;65157;50.082;18.178;2023-03-04T11:23:45;99171.02;;;2.14;71.83
76337;BME280;65157;50.082;18.178;2023-03-04T11:26:17;99169.06;;;2.18;71.78
76337;BME280;65157;50.082;18.178;2023-03-04T11:31:39;99157.94;;;2.16;71.84
76337;BME280;65157;50.082;18.178;2023-03-04T11:39:56;99150.69;;;2.27;71.48
76337;BME280;65157;50.082;18.178;2023-03-04T11:42:40;99137.15;;;2.25;71.08
76337;BME280;65157;50.082;18.178;2023-03-04T11:45:20;99140.34;;;2.35;71.44
76337;BME280;65157;50.082;18.178;2023-03-04T11:50:50;99135.26;;;2.52;71.59
76337;BME280;65157;50.082;18.178;2023-03-04T12:02:16;99118.13;;;2.83;70.35
76337;BME280;65157;50.082;18.178;2023-03-04T12:04:46;99113.17;;;2.90;70.77
76337;BME280;65157;50.082;18.178;2023-03-04T12:10:09;99108.88;;;2.97;70.12
76337;BME280;65157;50.082;18.178;2023-03-04T12:34:08;99094.02;;;3.13;66.70
76337;BME280;65157;50.082;18.178;2023-03-04T12:39:33;99092.55;;;3.06;67.56
76337;BME280;65157;50.082;18.178;2023-03-04T12:50:30;99086.27;;;2.94;67.50
76337;BME280;65157;50.082;18.178;2023-03-04T12:55:37;99063.64;;;2.80;67.71
76337;BME280;65157;50.082;18.178;2023-03-04T12:58:20;99076.79;;;2.86;67.73
76337;BME280;65157;50.082;18.178;2023-03-04T13:01:13;99078.95;;;2.81;67.11
76337;BME280;65157;50.082;18.178;2023-03-04T13:03:56;99071.90;;;2.74;67.69
76337;BME280;65157;50.082;18.178;2023-03-04T13:06:41;99072.64;;;2.71;67.80
76337;BME280;65157;50.082;18.178;2023-03-04T13:09:27;99070.02;;;2.72;68.03
76337;BME280;65157;50.082;18.178;2023-03-04T13:12:17;99075.95;;;2.71;68.30
76337;BME280;65157;50.082;18.178;2023-03-04T13:17:42;99075.65;;;2.68;68.76
76337;BME280;65157;50.082;18.178;2023-03-04T13:20:17;99076.20;;;2.66;68.85
76337;BME280;65157;50.082;18.178;2023-03-04T13:22:54;99076.19;;;2.67;68.81
76337;BME280;65157;50.082;18.178;2023-03-04T13:25:43;99079.33;;;2.67;69.04
76337;BME280;65157;50.082;18.178;2023-03-04T13:43:47;99063.10;;;2.93;69.21
76337;BME280;65157;50.082;18.178;2023-03-04T13:51:38;99060.66;;;2.93;68.80
76337;BME280;65157;50.082;18.178;2023-03-04T13:54:12;99062.60;;;2.92;68.78
76337;BME280;65157;50.082;18.178;2023-03-04T14:04:19;99050.39;;;2.92;69.06
76337;BME280;65157;50.082;18.178;2023-03-04T14:06:53;99049.44;;;2.97;68.88
76337;BME280;65157;50.082;18.178;2023-03-04T14:09:26;99048.91;;;2.97;68.38
76337;BME280;65157;50.082;18.178;2023-03-04T14:11:55;99045.80;;;2.95;68.60
76337;BME280;65157;50.082;18.178;2023-03-04T14:14:25;99053.18;;;3.03;68.80
76337;BME280;65157;50.082;18.178;2023-03-04T14:16:55;99053.42;;;3.10;68.74
76337;BME280;65157;50.082;18.178;2023-03-04T14:19:29;99044.46;;;3.15;68.80
76337;BME280;65157;50.082;18.178;2023-03-04T14:21:56;99045.42;;;3.19;68.69
76337;BME280;65157;50.082;18.178;2023-03-04T14:24:24;99046.00;;;3.27;68.84
76337;BME280;65157;50.082;18.178;2023-03-04T14:27:08;99044.71;;;3.31;68.77
76337;BME280;65157;50.082;18.178;2023-03-04T14:29:35;99046.27;;;3.32;68.90
76337;BME280;65157;50.082;18.178;2023-03-04T14:32:03;99043.29;;;3.33;68.50
76337;BME280;65157;50.082;18.178;2023-03-04T14:34:35;99035.80;;;3.33;68.70
76337;BME280;65157;50.082;18.178;2023-03-04T14:37:15;99048.66;;;3.34;68.86
76337;BME280;65157;50.082;18.178;2023-03-04T14:39:44;99041.56;;;3.32;68.77
76337;BME280;65157;50.082;18.178;2023-03-04T14:42:13;99039.20;;;3.27;68.83
76337;BME280;65157;50.082;18.178;2023-03-04T14:44:42;99042.36;;;3.25;68.94
76337;BME280;65157;50.082;18.178;2023-03-04T14:49:43;99043.08;;;3.24;68.89
76337;BME280;65157;50.082;18.178;2023-03-04T14:52:38;99031.42;;;3.22;68.80
76337;BME280;65157;50.082;18.178;2023-03-04T14:57:42;99033.35;;;3.33;68.74
76337;BME280;65157;50.082;18.178;2023-03-04T15:00:24;99033.88;;;3.32;68.93
76337;BME280;65157;50.082;18.178;2023-03-04T15:02:52;99024.39;;;3.26;69.06
76337;BME280;65157;50.082;18.178;2023-03-04T15:05:23;99036.27;;;3.34;69.19
76337;BME280;65157;50.082;18.178;2023-03-04T15:10:24;99029.09;;;3.37;69.12